Los Angeles, CA (90061)

5:16 AM PDT on September 19, 2014 (GMT -0700)
Civic Center | Change Station
CLOSE
Current Station
Personal Weather Station
Location: Inglewood, CA
Elevation: 138 ft
Nearby Weather Stations

Elev 138 ft 33.96 °N, 118.36 °W | Updated 7 minutes ago

Overcast
Overcast
67.1 °F
Feels Like 67.1 °F
N
0.0
Wind Variable Wind from NW
Gusts 1.0 mph

Today
High -- | Low -- °F
--% Chance of Precip.
Yesterday
High -- | Low -- °F
Precip. -- in
6:39 AM 6:53 PM
Waning Crescent, 19% visible
Pressure 29.87 in
Visibility 10.0 miles
Clouds Overcast 2400 ft
Dew Point 63 °F
Humidity 87%
Rainfall 0.00 in
Snow Depth 0 in , 0 in , 0 in
UV 0 out of 12
Pollen 6.90 out of 12
Ozone Good
Flu Activity Not available.
METAR KHHR 191153Z AUTO 00000KT 10SM OVC024 21/17 A2988 RMK AO2 SLP115 T02060167 10211 20200 55000

More Conditions Fewer Conditions

Pressure 29.87 in
Visibility 10.0 miles
Clouds Overcast 2400 ft
Dew Point 63 °F
Humidity 87%
Rainfall 0.00 in
Snow Depth 0 in , 0 in , 0 in
UV 0 out of 12
Pollen 6.90 out of 12
Ozone Good
Flu Activity Not available.
METAR KHHR 191153Z AUTO 00000KT 10SM OVC024 21/17 A2988 RMK AO2 SLP115 T02060167 10211 20200 55000

More Conditions Fewer Conditions

10-Day Weather Forecast

Almanac

Astronomy

Sep. 19, 2014 Rise Set
Actual Time 6:39 AM PDT 6:53 PM PDT
Civil Twilight 6:14 AM PDT 7:18 PM PDT
Nautical Twilight 5:44 AM PDT 7:47 PM PDT
Astronomical Twilight 5:15 AM PDT 8:17 PM PDT
Moon 2:37 AM PDT 4:17 PM PDT
Length of Visible Light 13h 04m
Length of Day
12h 14m
Tomorrow will be 2m 5s shorter.
Waning Crescent, 19% of the Moon is Illuminated
Today
Waning Crescent
Sep 24
New
Oct 1
First Quarter
Oct 8
Full
Oct 15
Last Quarter

Today's Extremes

State Highs State Lows

Community

WunderPhotos

Upload Photos

1,754,597 photos uploaded!

Nearby

Air Quality

  Air Quality AQ Index Pollutant
Yesterday Good
OZONE
Current Good
OZONE
Friday Good
PM10
Friday Good
OZONE
Friday Good
CO
Friday Good
NO2

Snow Depth

Station Depth Elevation
Blue Lakes 0 in 8000 ft
Adin Mountain 2 in 6200 ft
Heavenly Valley 0 in 8850 ft
Independence Camp 0 in 7000 ft
Sonora Pass 0 in 8800 ft

Earthquake Activity

City Distance Mag. Time & Date
Aguanga, California 91 miles 2.5 1:38 AM PDT
2014-09-19
La Quinta, California 108 miles 2.7 8:59 PM PDT
2014-09-15
Minimum magnitude displayed is 2.5.

Coastal Water Temperatures

Place Temperature
Santa Monica Pier 66.9 °F
Los Angeles, CA 66.9 °F
La Jolla, CA 70.0 °F

Nearby Weather Stations